createdAt,value
2022-09-23T00:00:12.014Z,21.34
2022-09-23T00:01:14.225Z,21.35
2022-09-23T00:02:16.506Z,21.35
2022-09-23T00:03:18.562Z,21.35
2022-09-23T00:04:20.636Z,21.35
2022-09-23T00:05:22.656Z,21.34
2022-09-23T00:06:24.925Z,21.34
2022-09-23T00:07:26.915Z,21.35
2022-09-23T00:08:29.097Z,21.35
2022-09-23T00:09:31.355Z,21.36
2022-09-23T00:10:37.255Z,21.36
2022-09-23T00:11:39.335Z,21.36
2022-09-23T00:12:42.187Z,21.37
2022-09-23T00:13:44.689Z,21.37
2022-09-23T00:14:46.684Z,21.36
2022-09-23T00:15:48.997Z,21.36
2022-09-23T00:16:51.106Z,21.36
2022-09-23T00:17:53.321Z,21.35
2022-09-23T00:18:55.403Z,21.36
2022-09-23T00:19:57.535Z,21.37
2022-09-23T00:22:16.057Z,21.46
2022-09-23T00:23:18.037Z,21.36
2022-09-23T00:24:20.026Z,21.35
2022-09-23T00:25:22.017Z,21.36
2022-09-23T00:26:24.535Z,21.36
2022-09-23T00:27:26.542Z,21.36
2022-09-23T00:28:29.530Z,21.36
2022-09-23T00:29:33.777Z,21.36
2022-09-23T00:30:35.971Z,21.36
2022-09-23T00:31:39.173Z,21.35
2022-09-23T00:32:41.388Z,21.37
2022-09-23T00:33:44.866Z,21.37
2022-09-23T00:34:46.933Z,21.36
2022-09-23T00:35:49.030Z,21.37
2022-09-23T00:36:51.532Z,21.38
2022-09-23T00:37:54.554Z,21.38
2022-09-23T00:38:56.692Z,21.37
2022-09-23T00:39:59.685Z,21.37
2022-09-23T00:41:02.204Z,21.37
2022-09-23T00:42:05.769Z,21.36
2022-09-23T00:43:11.538Z,21.35
2022-09-23T00:45:51.217Z,21.46
2022-09-23T00:46:53.468Z,21.35
2022-09-23T00:47:59.377Z,21.34
2022-09-23T00:50:37.523Z,21.43
2022-09-23T00:51:43.345Z,21.34
2022-09-23T00:52:45.396Z,21.33
2022-09-23T00:53:47.923Z,21.33
2022-09-23T00:54:51.413Z,21.33
2022-09-23T00:55:58.251Z,21.31
2022-09-23T00:57:01.428Z,21.32
2022-09-23T00:58:03.592Z,21.30
2022-09-23T00:59:06.827Z,21.31
2022-09-23T01:00:11.324Z,21.30
2022-09-23T01:01:15.371Z,21.31
2022-09-23T01:02:19.616Z,21.32
2022-09-23T01:03:21.809Z,21.33
2022-09-23T01:04:24.243Z,21.33
2022-09-23T01:05:26.841Z,21.32
2022-09-23T01:06:29.031Z,21.33
2022-09-23T01:07:31.004Z,21.31
2022-09-23T01:08:33.115Z,21.33
2022-09-23T01:09:35.386Z,21.35
2022-09-23T01:10:44.439Z,21.35
2022-09-23T01:13:21.751Z,21.44
2022-09-23T01:14:33.563Z,21.35
2022-09-23T01:18:21.477Z,21.43
2022-09-23T01:19:47.355Z,21.31
2022-09-23T01:20:56.550Z,21.30
2022-09-23T01:22:02.591Z,21.31
2022-09-23T01:23:09.179Z,21.30
2022-09-23T01:26:07.208Z,21.42
2022-09-23T01:27:37.123Z,21.30
2022-09-23T01:28:56.051Z,21.29
2022-09-23T01:30:16.583Z,21.27
2022-09-23T01:31:31.718Z,21.24
2022-09-23T01:32:59.286Z,21.23
2022-09-23T01:34:22.097Z,21.22
2022-09-23T01:35:57.109Z,21.20
2022-09-23T01:37:36.958Z,21.20
2022-09-23T01:38:45.956Z,21.19
2022-09-23T01:39:54.617Z,21.15
2022-09-23T01:41:07.799Z,21.14
2022-09-23T01:43:32.102Z,21.22
2022-09-23T01:45:50.256Z,21.21
2022-09-23T01:48:25.379Z,21.22
2022-09-23T01:49:48.770Z,21.13
2022-09-23T01:50:57.352Z,21.12
2022-09-23T01:53:35.520Z,21.25
2022-09-23T01:56:06.316Z,21.27
2022-09-23T01:57:18.648Z,21.17
2022-09-23T01:58:24.381Z,21.17
2022-09-23T01:59:40.214Z,21.18
2022-09-23T02:00:46.908Z,21.18
2022-09-23T02:03:14.728Z,21.31
2022-09-23T02:04:22.260Z,21.21
2022-09-23T02:05:30.459Z,21.19
2022-09-23T02:06:39.240Z,21.21
2022-09-23T02:09:01.397Z,21.33
2022-09-23T02:11:18.392Z,21.34
2022-09-23T02:12:20.744Z,21.23
2022-09-23T02:13:29.467Z,21.23
2022-09-23T02:15:49.206Z,21.36
2022-09-23T02:16:51.613Z,21.27
2022-09-23T02:17:57.532Z,21.28
2022-09-23T02:19:19.955Z,21.27
2022-09-23T02:20:24.579Z,21.29
2022-09-23T02:22:50.554Z,21.40
2022-09-23T02:25:07.767Z,21.41
2022-09-23T02:26:20.216Z,21.31
2022-09-23T02:27:43.614Z,21.30
2022-09-23T02:29:08.741Z,21.30
2022-09-23T02:31:43.045Z,21.41
2022-09-23T02:32:59.561Z,21.30
2022-09-23T02:34:22.156Z,21.28
2022-09-23T02:35:57.195Z,21.27
2022-09-23T02:37:21.555Z,21.27
2022-09-23T02:40:00.949Z,21.25
2022-09-23T02:41:07.291Z,21.24
2022-09-23T02:42:16.058Z,21.24
2022-09-23T02:43:24.956Z,21.22
2022-09-23T02:44:27.091Z,21.23
2022-09-23T02:45:30.296Z,21.22
2022-09-23T02:46:32.720Z,21.22
2022-09-23T02:47:35.128Z,21.22
2022-09-23T02:50:05.156Z,21.34
2022-09-23T02:51:07.913Z,21.24
2022-09-23T02:52:10.258Z,21.23
2022-09-23T02:53:12.362Z,21.24
2022-09-23T02:54:17.342Z,21.24
2022-09-23T02:55:19.737Z,21.25
2022-09-23T02:56:21.818Z,21.26
2022-09-23T02:57:23.845Z,21.26
2022-09-23T02:58:26.022Z,21.27
2022-09-23T02:59:28.449Z,21.28
2022-09-23T03:00:40.244Z,21.24
2022-09-23T03:01:49.411Z,21.24
2022-09-23T03:04:49.249Z,21.41
2022-09-23T03:05:56.599Z,21.30
2022-09-23T03:07:05.793Z,21.28
2022-09-23T03:08:11.724Z,21.29
2022-09-23T03:09:26.470Z,21.27
2022-09-23T03:11:01.739Z,21.29
2022-09-23T03:12:24.728Z,21.29
2022-09-23T03:15:05.125Z,21.38
2022-09-23T03:16:20.338Z,21.27
2022-09-23T03:17:32.893Z,21.26
2022-09-23T03:18:54.736Z,21.24
2022-09-23T03:21:18.620Z,21.35
2022-09-23T03:22:33.019Z,21.23
2022-09-23T03:23:36.076Z,21.23
2022-09-23T03:24:38.759Z,21.23
2022-09-23T03:25:41.326Z,21.23
2022-09-23T03:26:44.906Z,21.23
2022-09-23T03:27:47.496Z,21.25
2022-09-23T03:28:49.544Z,21.25
2022-09-23T03:29:52.936Z,21.26
2022-09-23T03:30:55.203Z,21.26
2022-09-23T03:31:57.799Z,21.27
2022-09-23T03:33:00.035Z,21.28
2022-09-23T03:34:04.159Z,21.29
2022-09-23T03:35:08.655Z,21.29
2022-09-23T03:36:11.238Z,21.29
2022-09-23T03:37:19.062Z,21.30
2022-09-23T03:38:22.305Z,21.33
2022-09-23T03:39:30.948Z,21.31
2022-09-23T03:40:36.458Z,21.33
2022-09-23T03:41:47.053Z,21.32
2022-09-23T03:42:49.210Z,21.33
2022-09-23T03:43:52.470Z,21.35
2022-09-23T03:44:54.967Z,21.34
2022-09-23T03:45:57.327Z,21.35
2022-09-23T03:47:01.025Z,21.35
2022-09-23T03:48:04.124Z,21.36
2022-09-23T03:49:28.602Z,21.36
2022-09-23T03:50:30.777Z,21.37
2022-09-23T03:51:33.491Z,21.37
2022-09-23T03:52:35.531Z,21.38
2022-09-23T03:53:37.546Z,21.37
2022-09-23T03:54:39.538Z,21.38
2022-09-23T03:55:41.534Z,21.37
2022-09-23T03:56:43.751Z,21.37
2022-09-23T03:57:46.911Z,21.38
2022-09-23T03:58:50.208Z,21.37
2022-09-23T03:59:53.889Z,21.37
2022-09-23T04:00:56.136Z,21.38
2022-09-23T04:01:59.881Z,21.37
2022-09-23T04:03:04.552Z,21.37
2022-09-23T04:04:08.262Z,21.38
2022-09-23T04:05:11.063Z,21.38
2022-09-23T04:06:15.330Z,21.40
2022-09-23T04:07:17.372Z,21.39
2022-09-23T04:08:19.575Z,21.40
2022-09-23T04:09:22.309Z,21.39
2022-09-23T04:10:24.653Z,21.39
2022-09-23T04:12:40.792Z,21.49
2022-09-23T04:13:42.829Z,21.39
2022-09-23T04:14:44.933Z,21.40
2022-09-23T04:15:49.410Z,21.40
2022-09-23T04:16:51.756Z,21.40
2022-09-23T04:17:53.897Z,21.40
2022-09-23T04:18:56.516Z,21.41
2022-09-23T04:19:58.558Z,21.41
2022-09-23T04:21:01.162Z,21.40
2022-09-23T04:22:03.767Z,21.41
2022-09-23T04:23:06.150Z,21.41
2022-09-23T04:24:08.460Z,21.42
2022-09-23T04:25:10.823Z,21.43
2022-09-23T04:26:14.954Z,21.43
2022-09-23T04:27:18.190Z,21.43
2022-09-23T04:28:21.690Z,21.43
2022-09-23T04:29:24.086Z,21.43
2022-09-23T04:30:26.405Z,21.42
2022-09-23T04:31:29.358Z,21.42
2022-09-23T04:32:31.636Z,21.43
2022-09-23T04:33:34.261Z,21.41
2022-09-23T04:34:37.443Z,21.43
2022-09-23T04:35:40.439Z,21.42
2022-09-23T04:36:43.576Z,21.42
2022-09-23T04:37:47.956Z,21.43
2022-09-23T04:38:51.483Z,21.43
2022-09-23T04:39:53.555Z,21.44
2022-09-23T04:40:55.693Z,21.43
2022-09-23T04:41:57.879Z,21.43
2022-09-23T04:43:02.249Z,21.44
2022-09-23T04:44:04.670Z,21.43
2022-09-23T04:45:08.388Z,21.44
2022-09-23T04:46:13.289Z,21.44
2022-09-23T04:47:16.830Z,21.43
2022-09-23T04:48:19.223Z,21.43
2022-09-23T04:49:21.345Z,21.42
2022-09-23T04:50:26.390Z,21.42
2022-09-23T04:51:30.767Z,21.41
2022-09-23T04:52:33.114Z,21.40
2022-09-23T04:53:36.318Z,21.41
2022-09-23T04:54:40.055Z,21.41
2022-09-23T04:55:43.335Z,21.41
2022-09-23T04:56:46.598Z,21.41
2022-09-23T04:57:48.901Z,21.41
2022-09-23T04:58:51.752Z,21.41
2022-09-23T04:59:53.902Z,21.41
2022-09-23T05:00:59.533Z,21.40
2022-09-23T05:02:01.694Z,21.41
2022-09-23T05:03:04.527Z,21.41
2022-09-23T05:04:08.870Z,21.41
2022-09-23T05:05:12.032Z,21.41
2022-09-23T05:06:14.854Z,21.41
2022-09-23T05:07:17.002Z,21.41
2022-09-23T05:08:19.113Z,21.41
2022-09-23T05:09:23.323Z,21.42
2022-09-23T05:10:25.747Z,21.41
2022-09-23T05:11:29.058Z,21.42
2022-09-23T05:12:31.145Z,21.42
2022-09-23T05:13:33.825Z,21.42
2022-09-23T05:14:36.973Z,21.42
2022-09-23T05:15:40.156Z,21.41
2022-09-23T05:16:42.589Z,21.41
2022-09-23T05:17:45.466Z,21.40
2022-09-23T05:18:47.841Z,21.40
2022-09-23T05:19:50.456Z,21.40
2022-09-23T05:20:53.912Z,21.39
2022-09-23T05:21:56.276Z,21.40
2022-09-23T05:22:58.907Z,21.40
2022-09-23T05:24:01.743Z,21.40
2022-09-23T05:25:04.823Z,21.41
2022-09-23T05:26:11.444Z,21.40
2022-09-23T05:27:13.699Z,21.40
2022-09-23T05:28:16.717Z,21.41
2022-09-23T05:29:19.362Z,21.41
2022-09-23T05:30:21.755Z,21.41
2022-09-23T05:31:26.351Z,21.40
2022-09-23T05:32:29.768Z,21.39
2022-09-23T05:33:35.430Z,21.40
2022-09-23T05:34:37.731Z,21.40
2022-09-23T05:35:47.932Z,21.41
2022-09-23T05:36:50.345Z,21.41
2022-09-23T05:37:52.473Z,21.41
2022-09-23T05:38:54.590Z,21.41
2022-09-23T05:39:56.594Z,21.40
2022-09-23T05:41:03.444Z,21.39
2022-09-23T05:42:07.324Z,21.39
2022-09-23T05:43:10.217Z,21.39
2022-09-23T05:44:13.430Z,21.39
2022-09-23T05:45:15.781Z,21.39
2022-09-23T05:46:20.579Z,21.39
2022-09-23T05:47:24.059Z,21.39
2022-09-23T05:48:27.527Z,21.39
2022-09-23T05:49:48.186Z,21.40
2022-09-23T05:50:34.779Z,21.40
2022-09-23T05:51:37.046Z,21.40
2022-09-23T05:52:39.140Z,21.40
2022-09-23T05:53:41.365Z,21.41
2022-09-23T05:54:43.391Z,21.42
2022-09-23T05:55:45.538Z,21.42
2022-09-23T05:56:47.957Z,21.42
2022-09-23T05:57:50.099Z,21.43
2022-09-23T05:58:53.963Z,21.42
2022-09-23T05:59:56.707Z,21.42
2022-09-23T06:00:59.107Z,21.42
2022-09-23T06:02:01.802Z,21.43
2022-09-23T06:03:04.291Z,21.42
2022-09-23T06:04:06.587Z,21.42
2022-09-23T06:05:11.275Z,21.43
2022-09-23T06:06:14.344Z,21.42
2022-09-23T06:07:16.449Z,21.42
2022-09-23T06:08:18.590Z,21.43
2022-09-23T06:09:21.819Z,21.43
2022-09-23T06:10:24.824Z,21.43
2022-09-23T06:11:29.258Z,21.42
2022-09-23T06:12:31.531Z,21.44
2022-09-23T06:13:34.557Z,21.44
2022-09-23T06:14:36.811Z,21.44
2022-09-23T06:15:39.124Z,21.44
2022-09-23T06:16:41.502Z,21.45
2022-09-23T06:17:43.661Z,21.45
2022-09-23T06:18:45.787Z,21.44
2022-09-23T06:19:48.161Z,21.44
2022-09-23T06:20:50.437Z,21.44
2022-09-23T06:21:53.362Z,21.44
2022-09-23T06:22:58.626Z,21.45
2022-09-23T06:24:01.209Z,21.45
2022-09-23T06:25:04.317Z,21.46
2022-09-23T06:26:08.980Z,21.46
2022-09-23T06:27:12.560Z,21.46
2022-09-23T06:28:14.952Z,21.47
2022-09-23T06:29:17.874Z,21.47
2022-09-23T06:30:23.772Z,21.47
2022-09-23T06:31:25.960Z,21.47
2022-09-23T06:32:29.802Z,21.47
2022-09-23T06:33:36.603Z,21.47
2022-09-23T06:34:48.714Z,21.47
2022-09-23T06:35:42.721Z,21.48
2022-09-23T06:36:46.594Z,21.47
2022-09-23T06:37:49.420Z,21.47
2022-09-23T06:38:52.315Z,21.48
2022-09-23T06:39:54.684Z,21.48
2022-09-23T06:40:58.479Z,21.46
2022-09-23T06:42:01.389Z,21.47
2022-09-23T06:43:03.588Z,21.48
2022-09-23T06:44:06.383Z,21.48
2022-09-23T06:45:09.796Z,21.49
2022-09-23T06:46:14.663Z,21.50
2022-09-23T06:47:17.515Z,21.51
2022-09-23T06:48:20.116Z,21.49
2022-09-23T06:49:22.839Z,21.50
2022-09-23T06:50:26.561Z,21.49
2022-09-23T06:51:28.882Z,21.49
2022-09-23T06:52:31.092Z,21.50
2022-09-23T06:53:33.596Z,21.49
2022-09-23T06:54:35.604Z,21.49
2022-09-23T06:55:37.882Z,21.49
2022-09-23T06:56:40.227Z,21.50
2022-09-23T06:57:43.160Z,21.49
2022-09-23T06:58:45.851Z,21.50
2022-09-23T06:59:49.573Z,21.50
2022-09-23T07:00:52.664Z,21.51
2022-09-23T07:01:55.129Z,21.51
2022-09-23T07:02:57.410Z,21.50
2022-09-23T07:04:00.025Z,21.50
2022-09-23T07:05:02.498Z,21.51
2022-09-23T07:06:05.630Z,21.50
2022-09-23T07:07:07.999Z,21.51
2022-09-23T07:08:10.225Z,21.52
2022-09-23T07:09:13.202Z,21.51
2022-09-23T07:10:15.844Z,21.51
2022-09-23T07:11:18.110Z,21.50
2022-09-23T07:12:20.326Z,21.51
2022-09-23T07:13:22.783Z,21.51
2022-09-23T07:14:24.902Z,21.51
2022-09-23T07:15:27.592Z,21.52
2022-09-23T07:16:30.510Z,21.51
2022-09-23T07:17:32.997Z,21.51
2022-09-23T07:18:36.933Z,21.52
2022-09-23T07:19:40.067Z,21.53
2022-09-23T07:20:42.450Z,21.54
2022-09-23T07:21:47.615Z,21.54
2022-09-23T07:22:51.213Z,21.55
2022-09-23T07:23:53.367Z,21.54
2022-09-23T07:24:55.516Z,21.54
2022-09-23T07:25:58.127Z,21.54
2022-09-23T07:27:01.261Z,21.52
2022-09-23T07:28:03.617Z,21.51
2022-09-23T07:29:05.835Z,21.51
2022-09-23T07:30:20.005Z,21.50
2022-09-23T07:31:18.650Z,21.49
2022-09-23T07:32:20.612Z,21.49
2022-09-23T07:33:31.863Z,21.48
2022-09-23T07:34:26.959Z,21.47
2022-09-23T07:35:29.668Z,21.46
2022-09-23T07:36:31.852Z,21.46
2022-09-23T07:37:34.464Z,21.47
2022-09-23T07:38:37.417Z,21.46
2022-09-23T07:39:40.656Z,21.46
2022-09-23T07:40:44.582Z,21.46
2022-09-23T07:41:48.981Z,21.46
2022-09-23T07:42:51.255Z,21.45
2022-09-23T07:43:53.497Z,21.46
2022-09-23T07:44:55.524Z,21.45
2022-09-23T07:47:11.336Z,21.53
2022-09-23T07:48:13.403Z,21.44
2022-09-23T07:49:15.609Z,21.43
2022-09-23T07:50:19.722Z,21.43
2022-09-23T07:52:40.127Z,21.55
2022-09-23T07:53:42.781Z,21.44
2022-09-23T07:54:46.418Z,21.43
2022-09-23T07:57:05.204Z,21.54
2022-09-23T07:58:07.302Z,21.43
2022-09-23T07:59:11.578Z,21.43
2022-09-23T08:00:16.263Z,21.43
2022-09-23T08:01:18.906Z,21.43
2022-09-23T08:02:21.344Z,21.42
2022-09-23T08:03:24.373Z,21.44
2022-09-23T08:04:29.423Z,21.45
2022-09-23T08:05:32.367Z,21.44
2022-09-23T08:06:43.945Z,21.45
2022-09-23T08:07:46.311Z,21.47
2022-09-23T08:08:53.070Z,21.48
2022-09-23T08:09:52.435Z,21.51
2022-09-23T08:11:03.420Z,21.51
2022-09-23T08:12:05.926Z,21.53
2022-09-23T08:13:09.126Z,21.55
2022-09-23T08:14:12.098Z,21.57
2022-09-23T08:15:14.595Z,21.56
2022-09-23T08:16:18.008Z,21.57
2022-09-23T08:17:20.346Z,21.59
2022-09-23T08:18:22.692Z,21.59
2022-09-23T08:19:26.076Z,21.59
2022-09-23T08:20:28.436Z,21.60
2022-09-23T08:21:31.261Z,21.59
2022-09-23T08:22:34.755Z,21.59
2022-09-23T08:23:36.942Z,21.59
2022-09-23T08:24:39.261Z,21.59
2022-09-23T08:25:45.518Z,21.60
2022-09-23T08:26:48.513Z,21.59
2022-09-23T08:27:51.849Z,21.60
2022-09-23T08:28:54.474Z,21.62
2022-09-23T08:29:57.763Z,21.62
2022-09-23T08:30:59.965Z,21.64
2022-09-23T08:32:02.070Z,21.66
2022-09-23T08:33:05.158Z,21.68
2022-09-23T08:34:07.928Z,21.68
2022-09-23T08:35:11.210Z,21.69
2022-09-23T08:36:14.566Z,21.68
2022-09-23T08:37:17.637Z,21.67
2022-09-23T08:38:19.900Z,21.64
2022-09-23T08:39:23.103Z,21.63
2022-09-23T08:40:26.294Z,21.63
2022-09-23T08:41:47.006Z,21.63
2022-09-23T08:42:49.690Z,21.63
2022-09-23T08:45:08.081Z,21.72
2022-09-23T08:46:10.517Z,21.59
2022-09-23T08:48:49.390Z,21.67
2022-09-23T08:50:19.403Z,21.56
2022-09-23T08:51:24.795Z,21.55
2022-09-23T08:52:48.400Z,21.52
2022-09-23T08:53:50.557Z,21.51
2022-09-23T08:54:55.432Z,21.48
2022-09-23T08:57:14.071Z,21.60
2022-09-23T08:58:35.601Z,21.48
2022-09-23T08:59:41.053Z,21.45
2022-09-23T09:00:47.493Z,21.43
2022-09-23T09:01:52.141Z,21.42
2022-09-23T09:02:54.497Z,21.42
2022-09-23T09:03:58.512Z,21.45
2022-09-23T09:05:03.234Z,21.43
2022-09-23T09:06:06.071Z,21.43
2022-09-23T09:08:24.407Z,21.43
2022-09-23T09:09:31.697Z,21.42
2022-09-23T09:10:36.976Z,21.43
2022-09-23T09:11:46.596Z,21.42
2022-09-23T09:13:02.399Z,21.40
2022-09-23T09:14:11.793Z,21.41
2022-09-23T09:15:25.362Z,21.40
2022-09-23T09:16:58.519Z,21.41
2022-09-23T09:17:40.725Z,21.43
2022-09-23T09:19:11.958Z,21.36
2022-09-23T09:21:34.275Z,21.44
2022-09-23T09:22:52.017Z,21.35
2022-09-23T09:23:58.176Z,21.36
2022-09-23T09:25:04.152Z,21.38
2022-09-23T09:26:10.395Z,21.40
2022-09-23T09:27:12.962Z,21.13
2022-09-23T09:28:35.646Z,20.51
2022-09-23T09:29:40.883Z,20.34
2022-09-23T09:30:48.366Z,20.11
2022-09-23T09:31:49.303Z,19.75
2022-09-23T09:33:07.003Z,19.60
2022-09-23T09:34:16.944Z,19.48
2022-09-23T09:36:41.195Z,19.44
2022-09-23T09:37:46.087Z,19.37
2022-09-23T09:38:50.016Z,19.08
2022-09-23T09:39:54.807Z,18.99
2022-09-23T09:40:59.724Z,19.04
2022-09-23T09:42:03.201Z,19.04
2022-09-23T09:43:06.441Z,18.93
2022-09-23T09:44:24.525Z,18.88
2022-09-23T09:45:39.680Z,18.90
2022-09-23T09:46:57.889Z,18.89
2022-09-23T09:49:56.091Z,19.06
2022-09-23T09:50:59.196Z,19.02
2022-09-23T09:52:22.331Z,19.08
2022-09-23T09:53:26.368Z,19.14
2022-09-23T09:54:29.828Z,19.21
2022-09-23T09:55:31.983Z,19.26
2022-09-23T09:56:34.320Z,19.33
2022-09-23T09:57:38.323Z,19.38
2022-09-23T09:58:46.429Z,19.43
2022-09-23T09:59:49.156Z,19.50
2022-09-23T10:00:52.489Z,19.58
2022-09-23T10:02:27.212Z,19.58
2022-09-23T10:03:55.683Z,19.58
2022-09-23T10:04:58.698Z,19.61
2022-09-23T10:06:02.015Z,19.64
2022-09-23T10:07:12.240Z,19.70
2022-09-23T10:09:36.601Z,19.79
2022-09-23T10:10:38.863Z,19.69
2022-09-23T10:11:41.702Z,19.66
2022-09-23T10:12:44.807Z,19.59
2022-09-23T10:14:06.388Z,19.61
2022-09-23T10:15:12.381Z,19.60
2022-09-23T10:16:15.231Z,19.65
2022-09-23T10:17:33.873Z,19.66
2022-09-23T10:18:48.892Z,19.66
2022-09-23T10:19:58.165Z,19.67
2022-09-23T10:21:11.635Z,19.66
2022-09-23T10:22:20.590Z,19.66
2022-09-23T10:23:26.477Z,19.66
2022-09-23T10:24:29.673Z,19.63
2022-09-23T10:25:32.763Z,19.66
2022-09-23T10:26:44.317Z,19.72
2022-09-23T10:27:46.519Z,19.77
2022-09-23T10:28:54.565Z,19.80
2022-09-23T10:29:58.994Z,19.80
2022-09-23T10:32:34.405Z,19.91
2022-09-23T10:35:09.882Z,19.87
2022-09-23T10:37:42.629Z,19.99
2022-09-23T10:38:44.895Z,19.92
2022-09-23T10:39:47.006Z,19.89
2022-09-23T10:40:49.438Z,19.85
2022-09-23T10:42:01.623Z,19.81
2022-09-23T10:43:35.729Z,19.81
2022-09-23T10:44:42.187Z,19.85
2022-09-23T10:45:50.184Z,19.85
2022-09-23T10:47:05.190Z,19.84
2022-09-23T10:48:11.174Z,19.78
2022-09-23T10:49:44.720Z,19.74
2022-09-23T10:50:52.058Z,19.72
2022-09-23T10:52:14.842Z,19.60
2022-09-23T10:53:45.504Z,19.56
2022-09-23T10:55:06.867Z,19.52
2022-09-23T10:56:15.489Z,19.50
2022-09-23T10:57:27.138Z,19.45
2022-09-23T11:00:20.424Z,19.49
2022-09-23T11:01:34.901Z,19.37
2022-09-23T11:02:40.953Z,19.38
2022-09-23T11:03:53.289Z,19.37
2022-09-23T11:05:14.636Z,19.39
2022-09-23T11:06:27.606Z,19.41
2022-09-23T11:09:00.611Z,19.54
2022-09-23T11:10:44.959Z,19.44
2022-09-23T11:11:32.493Z,19.47
2022-09-23T11:14:03.191Z,19.57
2022-09-23T11:15:15.620Z,19.51
2022-09-23T11:16:48.600Z,19.55
2022-09-23T11:17:58.398Z,19.60
2022-09-23T11:20:41.119Z,19.72
2022-09-23T11:23:15.493Z,19.74
2022-09-23T11:24:53.424Z,19.68
2022-09-23T11:26:05.256Z,19.40
2022-09-23T11:27:14.139Z,19.73
2022-09-23T11:28:23.555Z,19.56
2022-09-23T11:29:35.339Z,19.36
2022-09-23T11:32:44.178Z,19.22
2022-09-23T11:33:53.052Z,19.15
2022-09-23T11:35:02.300Z,19.31
2022-09-23T11:36:07.625Z,19.42
2022-09-23T11:37:14.649Z,19.53
2022-09-23T11:38:19.445Z,19.64
2022-09-23T11:40:43.811Z,19.92
2022-09-23T11:41:44.075Z,19.86
2022-09-23T11:42:53.353Z,19.92
2022-09-23T11:44:02.130Z,19.99
2022-09-23T11:46:38.196Z,20.22
2022-09-23T11:47:44.074Z,20.17
2022-09-23T11:48:52.666Z,20.22
2022-09-23T11:49:59.650Z,20.26
2022-09-23T11:51:18.937Z,20.34
2022-09-23T11:52:34.108Z,20.40
2022-09-23T11:53:43.020Z,20.45
2022-09-23T11:54:51.408Z,20.50
2022-09-23T11:57:12.615Z,20.70
2022-09-23T11:58:25.593Z,20.63
2022-09-23T11:59:41.340Z,20.67
2022-09-23T12:02:31.047Z,20.84
2022-09-23T12:04:00.787Z,20.75
2022-09-23T12:05:10.342Z,20.75
2022-09-23T12:06:18.877Z,20.77
2022-09-23T12:07:24.059Z,20.78
2022-09-23T12:08:36.883Z,20.79
2022-09-23T12:10:04.219Z,20.79
2022-09-23T12:11:27.435Z,20.81
2022-09-23T12:12:47.217Z,20.82
2022-09-23T12:14:06.768Z,20.83
2022-09-23T12:15:18.640Z,20.85
2022-09-23T12:16:40.342Z,20.86
2022-09-23T12:18:09.698Z,20.86
2022-09-23T12:19:28.416Z,20.87
2022-09-23T12:20:37.442Z,20.87
2022-09-23T12:21:51.458Z,20.87
2022-09-23T12:23:01.198Z,20.89
2022-09-23T12:25:46.253Z,21.01
2022-09-23T12:26:50.944Z,20.90
2022-09-23T12:27:53.411Z,20.90
2022-09-23T12:29:02.271Z,20.89
2022-09-23T12:30:08.629Z,20.88
2022-09-23T12:31:13.057Z,20.85
2022-09-23T12:32:18.318Z,20.84
2022-09-23T12:33:26.921Z,20.85
2022-09-23T12:34:41.269Z,20.86
2022-09-23T12:35:45.058Z,20.88
2022-09-23T12:36:47.904Z,20.91
2022-09-23T12:37:50.051Z,20.90
2022-09-23T12:39:12.481Z,20.92
2022-09-23T12:40:31.863Z,20.91
2022-09-23T12:41:39.365Z,20.94
2022-09-23T12:42:43.368Z,20.97
2022-09-23T12:45:31.686Z,21.13
2022-09-23T12:46:35.670Z,21.04
2022-09-23T12:47:39.280Z,21.02
2022-09-23T12:48:44.900Z,21.02
2022-09-23T12:49:48.741Z,21.04
2022-09-23T12:52:21.810Z,21.17
2022-09-23T12:53:37.355Z,21.07
2022-09-23T12:54:40.860Z,21.09
2022-09-23T12:55:44.889Z,21.09
2022-09-23T12:56:57.182Z,21.06
2022-09-23T12:58:00.362Z,21.06
2022-09-23T12:59:12.596Z,21.04
2022-09-23T13:01:36.765Z,21.14
2022-09-23T13:02:51.798Z,21.04
2022-09-23T13:03:56.046Z,21.04
2022-09-23T13:05:19.605Z,21.06
2022-09-23T13:06:21.971Z,21.06
2022-09-23T13:07:26.396Z,21.06
2022-09-23T13:08:28.582Z,21.07
2022-09-23T13:09:32.534Z,21.07
2022-09-23T13:10:47.414Z,21.08
2022-09-23T13:11:49.530Z,21.09
2022-09-23T13:12:51.603Z,21.09
2022-09-23T13:13:54.763Z,21.09
2022-09-23T13:14:59.187Z,21.10
2022-09-23T13:16:25.878Z,21.12
2022-09-23T13:17:34.952Z,21.16
2022-09-23T13:18:58.331Z,21.16
2022-09-23T13:21:18.815Z,21.25
2022-09-23T13:22:42.000Z,21.14
2022-09-23T13:24:14.021Z,21.14
2022-09-23T13:26:32.156Z,21.26
2022-09-23T13:27:34.656Z,21.15
2022-09-23T13:28:40.552Z,21.15
2022-09-23T13:30:00.496Z,21.16
2022-09-23T13:31:04.853Z,21.18
2022-09-23T13:33:41.350Z,21.27
2022-09-23T13:34:45.537Z,21.17
2022-09-23T13:35:49.032Z,21.16
2022-09-23T13:36:52.546Z,21.17
2022-09-23T13:37:55.924Z,21.17
2022-09-23T13:40:29.133Z,21.30
2022-09-23T13:41:31.948Z,21.20
2022-09-23T13:42:35.314Z,21.20
2022-09-23T13:43:45.110Z,21.21
2022-09-23T13:44:48.091Z,21.22
2022-09-23T13:45:50.521Z,21.25
2022-09-23T13:46:55.261Z,21.27
2022-09-23T13:49:28.588Z,21.40
2022-09-23T13:50:35.015Z,21.30
2022-09-23T13:51:35.996Z,21.31
2022-09-23T13:52:38.062Z,21.30
2022-09-23T13:53:41.023Z,21.33
2022-09-23T13:54:49.040Z,21.34
2022-09-23T13:56:07.312Z,21.35
2022-09-23T13:57:31.290Z,21.36
2022-09-23T13:58:34.818Z,21.35
2022-09-23T13:59:37.528Z,21.37
2022-09-23T14:00:45.519Z,21.38
2022-09-23T14:01:49.029Z,21.38
2022-09-23T14:02:51.389Z,21.40
2022-09-23T14:03:53.537Z,21.40
2022-09-23T14:04:57.277Z,21.40
2022-09-23T14:06:00.107Z,21.41
2022-09-23T14:07:03.611Z,21.41
2022-09-23T14:08:07.888Z,21.41
2022-09-23T14:09:11.640Z,21.41
2022-09-23T14:10:20.121Z,21.41
2022-09-23T14:11:25.392Z,21.40
2022-09-23T14:12:28.226Z,21.40
2022-09-23T14:13:33.416Z,21.39
2022-09-23T14:14:36.326Z,21.38
2022-09-23T14:15:39.021Z,21.38
2022-09-23T14:16:41.401Z,21.38
2022-09-23T14:18:02.682Z,21.38
2022-09-23T14:19:05.940Z,21.39
2022-09-23T14:20:16.011Z,21.39
2022-09-23T14:21:37.389Z,21.39
2022-09-23T14:22:39.671Z,21.38
2022-09-23T14:24:55.583Z,21.47
2022-09-23T14:25:57.901Z,21.37
2022-09-23T14:27:09.920Z,21.36
2022-09-23T14:28:14.628Z,21.37
2022-09-23T14:30:31.900Z,21.47
2022-09-23T14:31:35.498Z,21.39
2022-09-23T14:32:39.353Z,21.37
2022-09-23T14:33:44.402Z,21.37
2022-09-23T14:34:50.418Z,21.38
2022-09-23T14:35:54.517Z,21.38
2022-09-23T14:36:56.891Z,21.39
2022-09-23T14:38:00.132Z,21.39
2022-09-23T14:39:04.942Z,21.40
2022-09-23T14:40:16.668Z,21.41
2022-09-23T14:41:24.501Z,21.42
2022-09-23T14:42:26.837Z,21.41
2022-09-23T14:43:30.167Z,21.42
2022-09-23T14:44:32.458Z,21.42
2022-09-23T14:45:36.825Z,21.42
2022-09-23T14:46:41.542Z,21.41
2022-09-23T14:47:59.597Z,21.41
2022-09-23T14:49:14.849Z,21.42
2022-09-23T14:50:22.371Z,21.43
2022-09-23T14:51:48.455Z,21.42
2022-09-23T14:52:51.062Z,21.42
2022-09-23T14:53:54.387Z,21.42
2022-09-23T14:54:56.602Z,21.41
2022-09-23T14:56:14.153Z,21.41
2022-09-23T14:57:25.435Z,21.41
2022-09-23T14:58:28.267Z,21.41
2022-09-23T14:59:35.658Z,21.40
2022-09-23T15:00:39.071Z,21.40
2022-09-23T15:01:41.346Z,21.41
2022-09-23T15:02:45.396Z,21.41
2022-09-23T15:03:49.859Z,21.41
2022-09-23T15:04:53.855Z,21.41
2022-09-23T15:07:16.290Z,21.53
2022-09-23T15:08:20.768Z,21.42
2022-09-23T15:09:25.582Z,21.42
2022-09-23T15:10:34.725Z,21.42
2022-09-23T15:11:37.002Z,21.42
2022-09-23T15:12:39.337Z,21.42
2022-09-23T15:13:42.163Z,21.42
2022-09-23T15:14:49.319Z,21.42
2022-09-23T15:15:52.860Z,21.43
2022-09-23T15:16:56.153Z,21.43
2022-09-23T15:18:05.746Z,21.43
2022-09-23T15:19:14.477Z,21.43
2022-09-23T15:20:27.942Z,21.43
2022-09-23T15:21:38.811Z,21.41
2022-09-23T15:22:49.603Z,21.41
2022-09-23T15:23:52.795Z,21.41
2022-09-23T15:25:17.776Z,21.42
2022-09-23T15:26:40.372Z,21.41
2022-09-23T15:27:44.782Z,21.40
2022-09-23T15:28:47.756Z,21.37
2022-09-23T15:29:50.580Z,21.37
2022-09-23T15:30:53.259Z,21.19
2022-09-23T15:31:55.860Z,21.35
2022-09-23T15:32:58.022Z,21.35
2022-09-23T15:34:00.308Z,21.34
2022-09-23T15:35:03.894Z,21.35
2022-09-23T15:36:13.643Z,21.35
2022-09-23T15:37:15.726Z,21.35
2022-09-23T15:38:18.847Z,21.35
2022-09-23T15:39:20.996Z,21.35
2022-09-23T15:41:44.020Z,21.46
2022-09-23T15:42:46.036Z,21.35